createdAt,value
2022-11-05T00:00:20.388Z,8.74
2022-11-05T00:01:20.466Z,8.67
2022-11-05T00:02:20.379Z,8.58
2022-11-05T00:03:20.437Z,8.56
2022-11-05T00:04:20.377Z,8.51
2022-11-05T00:05:20.373Z,8.52
2022-11-05T00:06:20.378Z,8.41
2022-11-05T00:07:20.362Z,8.33
2022-11-05T00:08:20.357Z,8.28
2022-11-05T00:09:20.358Z,8.23
2022-11-05T00:10:20.366Z,8.24
2022-11-05T00:11:20.349Z,8.16
2022-11-05T00:12:20.354Z,8.16
2022-11-05T00:13:20.347Z,8.18
2022-11-05T00:14:20.344Z,8.19
2022-11-05T00:15:20.605Z,8.27
2022-11-05T00:16:20.336Z,8.36
2022-11-05T00:17:20.348Z,8.45
2022-11-05T00:18:20.326Z,8.52
2022-11-05T00:19:20.324Z,8.53
2022-11-05T00:20:20.320Z,8.58
2022-11-05T00:21:20.315Z,8.55
2022-11-05T00:22:20.318Z,8.56
2022-11-05T00:23:20.315Z,8.30
2022-11-05T00:24:24.110Z,8.36
2022-11-05T00:25:20.296Z,8.23
2022-11-05T00:26:20.297Z,8.19
2022-11-05T00:27:20.293Z,8.18
2022-11-05T00:28:20.287Z,8.06
2022-11-05T00:29:20.285Z,8.00
2022-11-05T00:30:20.282Z,8.01
2022-11-05T00:31:20.275Z,7.98
2022-11-05T00:32:20.279Z,7.95
2022-11-05T00:33:20.415Z,7.77
2022-11-05T00:34:20.267Z,7.76
2022-11-05T00:35:20.270Z,7.73
2022-11-05T00:36:20.261Z,7.69
2022-11-05T00:37:20.252Z,7.75
2022-11-05T00:38:20.251Z,7.61
2022-11-05T00:39:20.244Z,7.51
2022-11-05T00:40:20.252Z,7.47
2022-11-05T00:41:20.237Z,7.50
2022-11-05T00:42:20.252Z,7.47
2022-11-05T00:43:20.232Z,7.35
2022-11-05T00:44:20.231Z,7.25
2022-11-05T00:45:20.224Z,7.25
2022-11-05T00:46:20.223Z,7.24
2022-11-05T00:47:20.216Z,7.21
2022-11-05T00:48:20.215Z,7.14
2022-11-05T00:49:20.233Z,7.20
2022-11-05T00:50:20.217Z,7.03
2022-11-05T00:51:20.201Z,7.00
2022-11-05T00:52:20.197Z,7.11
2022-11-05T00:53:20.192Z,7.05
2022-11-05T00:54:20.188Z,6.96
2022-11-05T00:55:20.183Z,6.87
2022-11-05T00:56:20.183Z,6.85
2022-11-05T00:57:20.176Z,6.85
2022-11-05T00:58:20.189Z,6.81
2022-11-05T00:59:20.166Z,6.84
2022-11-05T01:00:20.167Z,6.93
2022-11-05T01:01:20.277Z,7.06
2022-11-05T01:02:20.355Z,7.06
2022-11-05T01:03:20.152Z,7.15
2022-11-05T01:04:20.155Z,7.21
2022-11-05T01:05:20.192Z,7.24
2022-11-05T01:06:20.141Z,7.36
2022-11-05T01:07:20.137Z,7.35
2022-11-05T01:08:20.132Z,7.36
2022-11-05T01:09:20.127Z,7.39
2022-11-05T01:10:20.526Z,7.47
2022-11-05T01:11:20.119Z,7.51
2022-11-05T01:12:20.118Z,7.39
2022-11-05T01:13:20.434Z,7.33
2022-11-05T01:14:20.109Z,7.35
2022-11-05T01:15:20.105Z,7.39
2022-11-05T01:16:20.101Z,7.36
2022-11-05T01:17:20.099Z,7.40
2022-11-05T01:18:20.101Z,7.38
2022-11-05T01:19:20.091Z,7.39
2022-11-05T01:20:20.088Z,7.31
2022-11-05T01:21:20.097Z,7.20
2022-11-05T01:22:20.080Z,7.18
2022-11-05T01:23:20.757Z,7.14
2022-11-05T01:24:20.070Z,7.15
2022-11-05T01:25:20.069Z,7.20
2022-11-05T01:26:20.067Z,7.24
2022-11-05T01:27:20.057Z,7.15
2022-11-05T01:28:20.147Z,7.15
2022-11-05T01:29:20.048Z,7.07
2022-11-05T01:30:20.050Z,6.88
2022-11-05T01:31:20.050Z,6.92
2022-11-05T01:32:20.040Z,6.81
2022-11-05T01:33:20.039Z,6.79
2022-11-05T01:34:20.036Z,6.75
2022-11-05T01:35:20.025Z,6.75
2022-11-05T01:36:20.022Z,6.67
2022-11-05T01:37:20.033Z,6.69
2022-11-05T01:38:20.016Z,6.72
2022-11-05T01:39:20.006Z,6.77
2022-11-05T01:40:20.006Z,6.78
2022-11-05T01:41:19.999Z,6.64
2022-11-05T01:42:19.999Z,6.64
2022-11-05T01:43:19.991Z,6.66
2022-11-05T01:44:19.992Z,6.62
2022-11-05T01:45:19.991Z,6.54
2022-11-05T01:46:19.981Z,6.49
2022-11-05T01:47:19.976Z,6.52
2022-11-05T01:48:19.971Z,6.44
2022-11-05T01:49:19.968Z,6.42
2022-11-05T01:50:19.962Z,6.42
2022-11-05T01:51:19.960Z,6.52
2022-11-05T01:52:19.952Z,6.49
2022-11-05T01:53:20.064Z,6.45
2022-11-05T01:54:19.945Z,6.59
2022-11-05T01:55:19.946Z,6.60
2022-11-05T01:56:19.936Z,6.63
2022-11-05T01:57:19.939Z,6.74
2022-11-05T01:58:19.932Z,6.70
2022-11-05T01:59:19.926Z,6.77
2022-11-05T02:00:19.919Z,6.89
2022-11-05T02:01:20.057Z,6.77
2022-11-05T02:02:20.056Z,6.77
2022-11-05T02:03:19.914Z,6.74
2022-11-05T02:04:19.904Z,6.72
2022-11-05T02:05:19.899Z,6.72
2022-11-05T02:06:19.895Z,6.62
2022-11-05T02:07:19.892Z,6.51
2022-11-05T02:08:19.888Z,6.54
2022-11-05T02:09:20.139Z,6.56
2022-11-05T02:10:19.880Z,6.56
2022-11-05T02:11:19.877Z,6.51
2022-11-05T02:12:19.870Z,6.60
2022-11-05T02:13:19.867Z,6.45
2022-11-05T02:14:19.865Z,6.44
2022-11-05T02:15:19.863Z,6.36
2022-11-05T02:16:19.853Z,6.39
2022-11-05T02:17:19.854Z,6.45
2022-11-05T02:18:19.843Z,6.51
2022-11-05T02:19:19.843Z,6.56
2022-11-05T02:20:19.839Z,6.52
2022-11-05T02:21:19.836Z,6.74
2022-11-05T02:22:21.033Z,6.70
2022-11-05T02:23:19.827Z,6.88
2022-11-05T02:24:19.818Z,6.95
2022-11-05T02:25:19.835Z,6.85
2022-11-05T02:26:19.811Z,7.03
2022-11-05T02:27:19.818Z,7.06
2022-11-05T02:28:19.802Z,7.00
2022-11-05T02:29:19.802Z,7.17
2022-11-05T02:30:19.793Z,7.20
2022-11-05T02:31:19.790Z,7.17
2022-11-05T02:32:19.789Z,7.17
2022-11-05T02:33:19.782Z,7.18
2022-11-05T02:34:19.778Z,7.18
2022-11-05T02:35:19.776Z,7.15
2022-11-05T02:36:19.767Z,7.06
2022-11-05T02:37:19.763Z,7.15
2022-11-05T02:38:19.759Z,7.03
2022-11-05T02:39:19.757Z,7.07
2022-11-05T02:40:19.748Z,7.07
2022-11-05T02:41:19.767Z,7.03
2022-11-05T02:42:19.741Z,7.18
2022-11-05T02:43:19.738Z,7.15
2022-11-05T02:44:19.732Z,7.23
2022-11-05T02:45:19.736Z,7.20
2022-11-05T02:46:19.724Z,7.39
2022-11-05T02:47:19.723Z,7.35
2022-11-05T02:48:19.715Z,7.31
2022-11-05T02:49:19.718Z,7.33
2022-11-05T02:50:19.708Z,7.40
2022-11-05T02:51:19.706Z,7.40
2022-11-05T02:52:19.699Z,7.48
2022-11-05T02:53:19.700Z,7.43
2022-11-05T02:54:19.696Z,7.48
2022-11-05T02:55:19.697Z,7.47
2022-11-05T02:56:19.683Z,7.45
2022-11-05T02:57:19.701Z,7.33
2022-11-05T02:58:19.675Z,7.35
2022-11-05T02:59:19.678Z,7.31
2022-11-05T03:00:19.666Z,7.23
2022-11-05T03:01:19.738Z,7.21
2022-11-05T03:02:19.813Z,7.24
2022-11-05T03:03:19.656Z,7.20
2022-11-05T03:04:19.650Z,7.17
2022-11-05T03:05:19.644Z,7.14
2022-11-05T03:06:19.641Z,7.17
2022-11-05T03:07:19.640Z,7.23
2022-11-05T03:08:19.632Z,7.24
2022-11-05T03:09:19.638Z,7.24
2022-11-05T03:10:19.628Z,7.32
2022-11-05T03:11:19.623Z,7.33
2022-11-05T03:12:19.620Z,7.33
2022-11-05T03:13:19.629Z,7.31
2022-11-05T03:14:19.606Z,7.48
2022-11-05T03:15:19.605Z,7.47
2022-11-05T03:16:19.598Z,7.53
2022-11-05T03:17:19.607Z,7.53
2022-11-05T03:18:19.945Z,7.60
2022-11-05T03:19:19.588Z,7.53
2022-11-05T03:20:19.587Z,7.61
2022-11-05T03:21:19.583Z,7.58
2022-11-05T03:22:19.574Z,7.61
2022-11-05T03:23:19.573Z,7.69
2022-11-05T03:24:19.565Z,7.61
2022-11-05T03:25:19.563Z,7.73
2022-11-05T03:26:19.557Z,7.72
2022-11-05T03:27:19.555Z,7.75
2022-11-05T03:28:19.560Z,7.72
2022-11-05T03:29:19.566Z,7.73
2022-11-05T03:30:19.544Z,7.76
2022-11-05T03:31:19.540Z,7.77
2022-11-05T03:32:19.535Z,7.79
2022-11-05T03:33:19.534Z,7.94
2022-11-05T03:34:19.528Z,7.90
2022-11-05T03:35:21.372Z,7.88
2022-11-05T03:36:19.519Z,7.94
2022-11-05T03:37:19.518Z,7.98
2022-11-05T03:38:19.514Z,7.97
2022-11-05T03:39:19.520Z,8.03
2022-11-05T03:40:19.498Z,8.05
2022-11-05T03:41:19.496Z,8.03
2022-11-05T03:42:19.495Z,8.09
2022-11-05T03:43:19.493Z,8.12
2022-11-05T03:44:19.482Z,8.10
2022-11-05T03:45:19.503Z,8.03
2022-11-05T03:46:19.475Z,8.01
2022-11-05T03:47:19.472Z,7.90
2022-11-05T03:48:19.533Z,7.83
2022-11-05T03:49:19.463Z,7.75
2022-11-05T03:50:19.460Z,7.88
2022-11-05T03:51:19.457Z,7.83
2022-11-05T03:52:19.451Z,7.87
2022-11-05T03:53:19.447Z,7.85
2022-11-05T03:54:19.444Z,7.91
2022-11-05T03:55:19.442Z,7.90
2022-11-05T03:56:19.435Z,7.94
2022-11-05T03:57:19.431Z,7.88
2022-11-05T03:58:19.430Z,7.95
2022-11-05T03:59:19.427Z,7.87
2022-11-05T04:00:19.433Z,7.85
2022-11-05T04:01:19.650Z,7.82
2022-11-05T04:02:19.567Z,7.79
2022-11-05T04:03:19.410Z,7.77
2022-11-05T04:04:19.410Z,7.76
2022-11-05T04:05:19.398Z,7.83
2022-11-05T04:06:19.400Z,7.85
2022-11-05T04:07:19.394Z,7.98
2022-11-05T04:08:19.385Z,7.93
2022-11-05T04:09:19.383Z,7.90
2022-11-05T04:10:19.390Z,7.95
2022-11-05T04:11:19.390Z,8.03
2022-11-05T04:12:19.376Z,7.98
2022-11-05T04:13:19.373Z,8.05
2022-11-05T04:14:19.365Z,8.06
2022-11-05T04:15:19.359Z,8.15
2022-11-05T04:16:19.357Z,8.13
2022-11-05T04:17:19.370Z,8.10
2022-11-05T04:18:19.847Z,8.12
2022-11-05T04:19:22.446Z,7.98
2022-11-05T04:20:19.339Z,7.94
2022-11-05T04:21:19.344Z,7.90
2022-11-05T04:22:19.327Z,7.90
2022-11-05T04:23:19.335Z,7.85
2022-11-05T04:24:19.324Z,7.87
2022-11-05T04:25:19.319Z,7.93
2022-11-05T04:26:19.335Z,7.93
2022-11-05T04:27:19.316Z,7.98
2022-11-05T04:28:19.308Z,8.09
2022-11-05T04:29:19.305Z,7.90
2022-11-05T04:30:19.378Z,7.80
2022-11-05T04:31:19.307Z,7.73
2022-11-05T04:32:19.297Z,7.61
2022-11-05T04:33:19.314Z,7.60
2022-11-05T04:34:19.280Z,7.54
2022-11-05T04:35:19.279Z,7.47
2022-11-05T04:36:19.272Z,7.48
2022-11-05T04:37:19.268Z,7.48
2022-11-05T04:38:19.266Z,7.40
2022-11-05T04:39:19.263Z,7.33
2022-11-05T04:40:19.260Z,7.18
2022-11-05T04:41:19.254Z,7.17
2022-11-05T04:42:19.250Z,7.10
2022-11-05T04:43:19.815Z,7.00
2022-11-05T04:44:19.238Z,6.95
2022-11-05T04:45:19.237Z,6.84
2022-11-05T04:46:19.245Z,6.87
2022-11-05T04:47:21.880Z,6.78
2022-11-05T04:48:19.221Z,6.87
2022-11-05T04:49:19.237Z,6.79
2022-11-05T04:50:19.213Z,6.89
2022-11-05T04:51:19.212Z,6.89
2022-11-05T04:52:19.305Z,6.93
2022-11-05T04:53:19.211Z,7.02
2022-11-05T04:54:19.206Z,7.07
2022-11-05T04:55:19.198Z,7.06
2022-11-05T04:56:19.190Z,7.05
2022-11-05T04:57:19.185Z,7.02
2022-11-05T04:58:19.180Z,6.95
2022-11-05T04:59:19.179Z,6.81
2022-11-05T05:00:19.174Z,6.72
2022-11-05T05:01:19.254Z,6.70
2022-11-05T05:02:19.229Z,6.72
2022-11-05T05:03:19.163Z,6.63
2022-11-05T05:04:19.154Z,6.54
2022-11-05T05:05:19.176Z,6.45
2022-11-05T05:06:19.145Z,6.42
2022-11-05T05:07:19.147Z,6.42
2022-11-05T05:08:19.139Z,6.42
2022-11-05T05:09:19.136Z,6.28
2022-11-05T05:10:19.147Z,6.20
2022-11-05T05:11:19.129Z,6.24
2022-11-05T05:12:19.123Z,6.09
2022-11-05T05:13:19.121Z,6.16
2022-11-05T05:14:19.113Z,5.99
2022-11-05T05:15:19.113Z,5.99
2022-11-05T05:16:19.105Z,5.99
2022-11-05T05:17:19.104Z,5.98
2022-11-05T05:18:19.110Z,5.99
2022-11-05T05:19:19.099Z,5.87
2022-11-05T05:20:19.091Z,5.82
2022-11-05T05:21:19.105Z,5.80
2022-11-05T05:22:19.080Z,5.86
2022-11-05T05:23:19.076Z,5.76
2022-11-05T05:24:19.079Z,5.76
2022-11-05T05:25:19.070Z,5.71
2022-11-05T05:26:19.063Z,5.69
2022-11-05T05:27:19.058Z,5.69
2022-11-05T05:28:19.053Z,5.65
2022-11-05T05:29:19.054Z,5.69
2022-11-05T05:30:19.052Z,5.68
2022-11-05T05:31:19.042Z,5.69
2022-11-05T05:32:19.039Z,5.79
2022-11-05T05:33:19.030Z,5.83
2022-11-05T05:34:19.025Z,5.80
2022-11-05T05:35:19.029Z,5.83
2022-11-05T05:36:19.023Z,5.75
2022-11-05T05:37:19.035Z,5.97
2022-11-05T05:38:19.015Z,6.04
2022-11-05T05:39:19.013Z,5.97
2022-11-05T05:40:19.003Z,5.98
2022-11-05T05:41:18.995Z,5.98
2022-11-05T05:42:18.999Z,5.94
2022-11-05T05:43:18.990Z,5.93
2022-11-05T05:44:18.981Z,5.94
2022-11-05T05:45:18.976Z,5.93
2022-11-05T05:46:18.971Z,5.98
2022-11-05T05:47:18.977Z,5.90
2022-11-05T05:48:18.960Z,6.01
2022-11-05T05:49:18.967Z,6.07
2022-11-05T05:50:18.953Z,6.12
2022-11-05T05:51:18.952Z,6.07
2022-11-05T05:52:18.944Z,5.98
2022-11-05T05:53:18.959Z,5.90
2022-11-05T05:54:18.934Z,5.83
2022-11-05T05:55:18.938Z,5.69
2022-11-05T05:56:19.009Z,5.57
2022-11-05T05:57:18.923Z,5.66
2022-11-05T05:58:18.925Z,5.53
2022-11-05T05:59:18.923Z,5.62
2022-11-05T06:00:18.911Z,5.61
2022-11-05T06:01:20.172Z,5.44
2022-11-05T06:02:19.044Z,5.48
2022-11-05T06:03:18.900Z,5.41
2022-11-05T06:04:18.894Z,5.51
2022-11-05T06:05:18.891Z,5.44
2022-11-05T06:06:18.883Z,5.51
2022-11-05T06:07:18.876Z,5.47
2022-11-05T06:08:18.883Z,5.50
2022-11-05T06:09:18.884Z,5.50
2022-11-05T06:10:18.928Z,5.54
2022-11-05T06:11:18.862Z,5.53
2022-11-05T06:12:18.853Z,5.53
2022-11-05T06:13:18.845Z,5.44
2022-11-05T06:14:18.848Z,5.44
2022-11-05T06:15:18.837Z,5.46
2022-11-05T06:16:18.833Z,5.46
2022-11-05T06:17:18.830Z,5.29
2022-11-05T06:18:18.824Z,5.28
2022-11-05T06:19:18.823Z,5.21
2022-11-05T06:20:18.836Z,5.18
2022-11-05T06:21:18.861Z,5.20
2022-11-05T06:22:18.867Z,5.14
2022-11-05T06:23:18.862Z,5.11
2022-11-05T06:24:18.851Z,5.20
2022-11-05T06:25:18.864Z,5.25
2022-11-05T06:26:18.793Z,5.29
2022-11-05T06:27:18.788Z,5.32
2022-11-05T06:28:18.784Z,5.17
2022-11-05T06:29:18.771Z,5.14
2022-11-05T06:30:18.767Z,5.28
2022-11-05T06:31:18.766Z,5.28
2022-11-05T06:32:18.763Z,5.28
2022-11-05T06:33:18.753Z,5.21
2022-11-05T06:34:18.748Z,5.17
2022-11-05T06:35:18.743Z,5.12
2022-11-05T06:36:18.739Z,5.11
2022-11-05T06:37:18.742Z,5.20
2022-11-05T06:38:18.731Z,5.14
2022-11-05T06:39:18.723Z,5.12
2022-11-05T06:40:18.722Z,5.18
2022-11-05T06:41:18.733Z,5.17
2022-11-05T06:42:19.471Z,5.20
2022-11-05T06:43:18.706Z,5.15
2022-11-05T06:44:18.701Z,5.26
2022-11-05T06:45:18.697Z,5.26
2022-11-05T06:46:18.693Z,5.23
2022-11-05T06:47:18.684Z,5.23
2022-11-05T06:48:18.681Z,5.25
2022-11-05T06:49:18.733Z,5.28
2022-11-05T06:50:18.676Z,5.28
2022-11-05T06:51:18.674Z,5.23
2022-11-05T06:52:18.671Z,5.14
2022-11-05T06:53:18.658Z,5.12
2022-11-05T06:54:18.657Z,5.10
2022-11-05T06:55:18.651Z,5.10
2022-11-05T06:56:18.671Z,5.02
2022-11-05T06:57:18.658Z,5.07
2022-11-05T06:58:18.639Z,5.08
2022-11-05T06:59:18.629Z,5.04
2022-11-05T07:00:18.628Z,4.99
2022-11-05T07:01:18.770Z,5.04
2022-11-05T07:02:18.691Z,4.97
2022-11-05T07:03:18.617Z,5.10
2022-11-05T07:04:18.609Z,5.14
2022-11-05T07:05:18.605Z,5.23
2022-11-05T07:06:18.604Z,5.15
2022-11-05T07:07:18.593Z,5.20
2022-11-05T07:08:18.592Z,5.28
2022-11-05T07:09:18.583Z,5.25
2022-11-05T07:10:18.577Z,5.18
2022-11-05T07:11:18.572Z,5.35
2022-11-05T07:12:18.569Z,5.32
2022-11-05T07:13:18.580Z,5.48
2022-11-05T07:14:18.560Z,5.41
2022-11-05T07:15:18.554Z,5.59
2022-11-05T07:16:18.552Z,5.51
2022-11-05T07:17:18.545Z,5.62
2022-11-05T07:18:18.543Z,5.47
2022-11-05T07:19:18.538Z,5.56
2022-11-05T07:20:18.531Z,5.48
2022-11-05T07:21:18.524Z,5.53
2022-11-05T07:22:18.527Z,5.61
2022-11-05T07:23:18.519Z,5.50
2022-11-05T07:24:18.511Z,5.56
2022-11-05T07:25:18.505Z,5.62
2022-11-05T07:26:18.511Z,5.66
2022-11-05T07:27:18.498Z,5.54
2022-11-05T07:28:18.493Z,5.64
2022-11-05T07:29:18.504Z,5.59
2022-11-05T07:30:18.483Z,5.59
2022-11-05T07:31:18.482Z,5.69
2022-11-05T07:32:18.473Z,5.59
2022-11-05T07:33:18.472Z,5.68
2022-11-05T07:34:18.469Z,5.62
2022-11-05T07:35:18.460Z,5.61
2022-11-05T07:36:18.458Z,5.65
2022-11-05T07:37:18.454Z,5.69
2022-11-05T07:38:18.443Z,5.76
2022-11-05T07:39:18.439Z,5.82
2022-11-05T07:40:18.433Z,5.83
2022-11-05T07:41:18.428Z,5.89
2022-11-05T07:42:18.423Z,5.91
2022-11-05T07:43:18.445Z,5.99
2022-11-05T07:44:18.417Z,6.04
2022-11-05T07:45:18.428Z,6.02
2022-11-05T07:46:18.407Z,6.08
2022-11-05T07:47:18.403Z,6.11
2022-11-05T07:48:18.397Z,6.22
2022-11-05T07:49:18.390Z,6.20
2022-11-05T07:50:18.387Z,6.16
2022-11-05T07:51:18.380Z,6.19
2022-11-05T07:52:18.376Z,6.22
2022-11-05T07:53:18.373Z,6.27
2022-11-05T07:54:18.371Z,6.28
2022-11-05T07:55:18.361Z,6.36
2022-11-05T07:56:18.358Z,6.46
2022-11-05T07:57:18.352Z,6.56
2022-11-05T07:58:18.350Z,6.60
2022-11-05T07:59:18.349Z,6.56
2022-11-05T08:00:18.340Z,6.62
2022-11-05T08:01:18.593Z,6.63
2022-11-05T08:02:18.612Z,6.69
2022-11-05T08:03:19.227Z,6.79
2022-11-05T08:04:18.323Z,6.92
2022-11-05T08:05:18.317Z,6.96
2022-11-05T08:06:18.313Z,6.99
2022-11-05T08:07:18.308Z,7.00
2022-11-05T08:08:18.310Z,7.11
2022-11-05T08:09:18.301Z,7.20
2022-11-05T08:10:18.293Z,7.17
2022-11-05T08:11:18.291Z,7.17
2022-11-05T08:12:18.285Z,7.21
2022-11-05T08:13:18.279Z,7.21
2022-11-05T08:14:18.278Z,7.28
2022-11-05T08:15:18.274Z,7.25
2022-11-05T08:16:18.265Z,7.33
2022-11-05T08:17:18.605Z,7.40
2022-11-05T08:18:18.258Z,7.45
2022-11-05T08:19:18.252Z,7.57
2022-11-05T08:20:18.250Z,7.66
2022-11-05T08:21:18.243Z,7.57
2022-11-05T08:22:18.238Z,7.58
2022-11-05T08:23:18.242Z,7.61
2022-11-05T08:24:18.231Z,7.70
2022-11-05T08:25:18.224Z,7.73
2022-11-05T08:26:18.222Z,7.73
2022-11-05T08:27:18.219Z,7.80
2022-11-05T08:28:18.214Z,7.85
2022-11-05T08:29:18.205Z,7.93
2022-11-05T08:30:18.209Z,7.93
2022-11-05T08:31:18.232Z,7.94
2022-11-05T08:32:18.199Z,8.01
2022-11-05T08:33:18.212Z,8.09
2022-11-05T08:34:18.189Z,8.10
2022-11-05T08:35:18.188Z,8.20
2022-11-05T08:36:18.180Z,8.20
2022-11-05T08:37:18.183Z,8.28
2022-11-05T08:38:18.177Z,8.20
2022-11-05T08:39:18.167Z,8.42
2022-11-05T08:40:18.175Z,8.37
2022-11-05T08:41:18.318Z,8.48
2022-11-05T08:42:18.283Z,8.34
2022-11-05T08:43:18.149Z,8.48
2022-11-05T08:44:18.255Z,8.49
2022-11-05T08:45:18.143Z,8.56
2022-11-05T08:46:18.139Z,8.53
2022-11-05T08:47:18.133Z,8.58
2022-11-05T08:48:18.131Z,8.63
2022-11-05T08:49:18.143Z,8.64
2022-11-05T08:50:18.124Z,8.61
2022-11-05T08:51:18.124Z,8.64
2022-11-05T08:52:18.115Z,8.74
2022-11-05T08:53:18.109Z,8.71
2022-11-05T08:54:18.103Z,8.70
2022-11-05T08:55:18.101Z,8.76
2022-11-05T08:56:18.098Z,8.76
2022-11-05T08:57:18.093Z,8.78
2022-11-05T08:58:18.098Z,8.76
2022-11-05T08:59:18.083Z,8.81
2022-11-05T09:00:18.080Z,8.85
2022-11-05T09:01:18.153Z,8.89
2022-11-05T09:02:18.178Z,8.81
2022-11-05T09:03:18.086Z,8.89
2022-11-05T09:04:18.065Z,8.84
2022-11-05T09:05:18.079Z,8.79
2022-11-05T09:06:18.054Z,8.88
2022-11-05T09:07:18.053Z,8.88
2022-11-05T09:08:18.053Z,8.97
2022-11-05T09:09:18.040Z,8.91
2022-11-05T09:10:18.039Z,8.88
2022-11-05T09:11:18.042Z,8.94
2022-11-05T09:12:18.030Z,9.04
2022-11-05T09:13:19.710Z,9.03
2022-11-05T09:14:18.022Z,9.08
2022-11-05T09:15:18.020Z,9.06
2022-11-05T09:16:18.016Z,9.08
2022-11-05T09:17:18.009Z,9.04
2022-11-05T09:18:18.009Z,9.14
2022-11-05T09:19:18.004Z,9.11
2022-11-05T09:20:18.068Z,9.11
2022-11-05T09:21:18.043Z,9.21
2022-11-05T09:22:17.998Z,9.22
2022-11-05T09:23:17.988Z,9.19
2022-11-05T09:24:18.003Z,9.23
2022-11-05T09:25:17.981Z,9.22
2022-11-05T09:26:17.979Z,9.21
2022-11-05T09:27:17.970Z,9.29
2022-11-05T09:28:17.982Z,9.32
2022-11-05T09:29:17.968Z,9.29
2022-11-05T09:30:17.975Z,9.26
2022-11-05T09:31:17.957Z,9.43
2022-11-05T09:32:17.956Z,9.47
2022-11-05T09:33:17.955Z,9.46
2022-11-05T09:34:17.947Z,9.47
2022-11-05T09:35:17.943Z,9.50
2022-11-05T09:36:17.943Z,9.41
2022-11-05T09:37:18.047Z,9.54
2022-11-05T09:38:17.945Z,9.54
2022-11-05T09:39:17.925Z,9.58
2022-11-05T09:40:17.924Z,9.56
2022-11-05T09:41:17.970Z,9.59
2022-11-05T09:42:17.916Z,9.58
2022-11-05T09:43:17.911Z,9.54
2022-11-05T09:44:17.922Z,9.56
2022-11-05T09:45:17.922Z,9.58
2022-11-05T09:46:18.024Z,9.59
2022-11-05T09:47:17.895Z,9.58
2022-11-05T09:48:17.894Z,9.66
2022-11-05T09:49:17.890Z,9.58
2022-11-05T09:50:17.886Z,9.72
2022-11-05T09:51:23.426Z,9.62
2022-11-05T09:52:17.878Z,9.61
2022-11-05T09:53:17.988Z,9.56
2022-11-05T09:54:17.872Z,9.58
2022-11-05T09:55:17.864Z,9.59
2022-11-05T09:56:17.871Z,9.66
2022-11-05T09:57:17.860Z,9.64
2022-11-05T09:58:17.855Z,9.58
2022-11-05T09:59:17.850Z,9.68
2022-11-05T10:00:17.848Z,9.66
2022-11-05T10:01:18.139Z,9.65
2022-11-05T10:02:17.943Z,9.64
2022-11-05T10:03:17.834Z,9.72
2022-11-05T10:04:17.832Z,9.72
2022-11-05T10:05:17.888Z,9.73
2022-11-05T10:06:17.826Z,9.76
2022-11-05T10:07:17.823Z,9.86
2022-11-05T10:08:17.817Z,9.77
2022-11-05T10:09:17.832Z,9.80
2022-11-05T10:10:17.811Z,9.77
2022-11-05T10:11:17.808Z,9.79
2022-11-05T10:12:17.802Z,9.80
2022-11-05T10:13:17.801Z,9.77
2022-11-05T10:14:17.798Z,9.79
2022-11-05T10:15:17.799Z,9.79
2022-11-05T10:16:17.789Z,9.84
2022-11-05T10:17:17.791Z,9.82
2022-11-05T10:18:17.783Z,9.84
2022-11-05T10:19:17.781Z,9.87
2022-11-05T10:20:17.776Z,9.82
2022-11-05T10:21:27.809Z,9.82
2022-11-05T10:22:17.769Z,9.80
2022-11-05T10:23:17.780Z,9.87
2022-11-05T10:24:17.765Z,9.91
2022-11-05T10:25:17.785Z,9.82
2022-11-05T10:26:17.763Z,9.83
2022-11-05T10:27:17.756Z,9.82
2022-11-05T10:28:17.745Z,9.83
2022-11-05T10:29:17.745Z,9.98
2022-11-05T10:30:17.740Z,9.94
2022-11-05T10:31:17.746Z,9.98
2022-11-05T10:32:17.734Z,10.04
2022-11-05T10:33:17.729Z,10.09
2022-11-05T10:34:17.746Z,10.05
2022-11-05T10:35:17.729Z,10.09
2022-11-05T10:36:17.726Z,10.02
2022-11-05T10:37:17.722Z,10.12
2022-11-05T10:38:17.817Z,10.07
2022-11-05T10:39:17.761Z,9.97
2022-11-05T10:40:17.703Z,10.01
2022-11-05T10:41:17.722Z,9.98
2022-11-05T10:42:17.703Z,10.01
2022-11-05T10:43:17.699Z,9.98
2022-11-05T10:44:18.996Z,9.91
2022-11-05T10:45:17.686Z,10.01
2022-11-05T10:46:17.683Z,9.92
2022-11-05T10:47:17.682Z,9.95
2022-11-05T10:48:17.676Z,9.97
2022-11-05T10:49:17.677Z,10.02
2022-11-05T10:50:17.673Z,9.94
2022-11-05T10:51:17.666Z,9.97
2022-11-05T10:52:17.663Z,9.95
2022-11-05T10:53:17.661Z,9.94
2022-11-05T10:54:17.660Z,10.04
2022-11-05T10:55:17.655Z,10.04
2022-11-05T10:56:17.652Z,10.01
2022-11-05T10:57:17.673Z,9.98
2022-11-05T10:58:17.658Z,10.05
2022-11-05T10:59:17.643Z,10.01
2022-11-05T11:00:17.634Z,9.98
2022-11-05T11:01:17.750Z,9.98
2022-11-05T11:02:17.698Z,10.07
2022-11-05T11:03:17.656Z,10.02
2022-11-05T11:04:17.620Z,10.13
2022-11-05T11:05:17.622Z,10.09
2022-11-05T11:06:17.617Z,10.15
2022-11-05T11:07:17.625Z,10.09
2022-11-05T11:08:17.608Z,10.09
2022-11-05T11:09:17.608Z,10.16
2022-11-05T11:10:17.670Z,10.05
2022-11-05T11:11:17.602Z,10.10
2022-11-05T11:12:17.599Z,10.20
2022-11-05T11:13:17.613Z,10.19
2022-11-05T11:14:17.596Z,10.20
2022-11-05T11:15:17.606Z,10.17
2022-11-05T11:16:17.584Z,10.20
2022-11-05T11:17:17.581Z,10.20
2022-11-05T11:18:17.581Z,10.23
2022-11-05T11:19:17.573Z,10.16
2022-11-05T11:20:17.607Z,10.16
2022-11-05T11:21:17.573Z,10.17
2022-11-05T11:22:17.562Z,10.25
2022-11-05T11:23:17.560Z,10.23
2022-11-05T11:24:17.559Z,10.22
2022-11-05T11:25:18.005Z,10.23
2022-11-05T11:26:17.562Z,10.22
2022-11-05T11:27:17.549Z,10.23
2022-11-05T11:28:17.550Z,10.26
2022-11-05T11:29:17.576Z,10.22
2022-11-05T11:30:17.645Z,10.26
2022-11-05T11:31:17.536Z,10.34
2022-11-05T11:32:17.529Z,10.19
2022-11-05T11:33:17.529Z,10.28
2022-11-05T11:34:17.527Z,10.38
2022-11-05T11:35:17.528Z,10.30
2022-11-05T11:36:17.515Z,10.25
2022-11-05T11:37:19.598Z,10.33
2022-11-05T11:38:17.512Z,10.31
2022-11-05T11:39:17.509Z,10.33
2022-11-05T11:40:17.510Z,10.33
2022-11-05T11:41:17.504Z,10.26
2022-11-05T11:42:17.500Z,10.31
2022-11-05T11:43:17.505Z,10.33
2022-11-05T11:44:17.503Z,10.38
2022-11-05T11:45:17.509Z,10.38
2022-11-05T11:46:17.491Z,10.44
2022-11-05T11:47:17.488Z,10.40
2022-11-05T11:48:17.482Z,10.38
2022-11-05T11:49:17.482Z,10.41
2022-11-05T11:50:17.471Z,10.46
2022-11-05T11:51:17.473Z,10.44
2022-11-05T11:52:17.465Z,10.41
2022-11-05T11:53:17.467Z,10.37
2022-11-05T11:54:17.467Z,10.44
2022-11-05T11:55:17.459Z,10.48
2022-11-05T11:56:17.452Z,10.46
2022-11-05T11:57:17.453Z,10.41
2022-11-05T11:58:17.462Z,10.38
2022-11-05T11:59:17.445Z,10.44
2022-11-05T12:00:17.476Z,10.38
2022-11-05T12:01:17.527Z,10.38
2022-11-05T12:02:17.563Z,10.48
2022-11-05T12:03:17.998Z,10.44
2022-11-05T12:04:17.426Z,10.38
2022-11-05T12:05:17.428Z,10.38
2022-11-05T12:06:17.421Z,10.38
2022-11-05T12:07:17.426Z,10.40
2022-11-05T12:08:17.421Z,10.37
2022-11-05T12:09:17.416Z,10.41
2022-11-05T12:10:17.408Z,10.42
2022-11-05T12:11:17.414Z,10.42
2022-11-05T12:12:17.409Z,10.41
2022-11-05T12:13:17.405Z,10.40
2022-11-05T12:14:17.394Z,10.44
2022-11-05T12:15:17.393Z,10.41
2022-11-05T12:16:17.389Z,10.51
2022-11-05T12:17:17.405Z,10.40
2022-11-05T12:18:17.382Z,10.46
2022-11-05T12:19:17.384Z,10.41
2022-11-05T12:20:17.379Z,10.42
2022-11-05T12:21:34.638Z,10.44
2022-11-05T12:22:17.372Z,10.38
2022-11-05T12:23:17.371Z,10.35
2022-11-05T12:24:17.364Z,10.42
2022-11-05T12:25:17.614Z,10.51
2022-11-05T12:26:17.358Z,10.49
2022-11-05T12:27:17.357Z,10.51
2022-11-05T12:28:17.351Z,10.57
2022-11-05T12:29:19.115Z,10.68
2022-11-05T12:30:17.346Z,10.54
2022-11-05T12:31:17.346Z,10.59
2022-11-05T12:32:17.441Z,10.61
2022-11-05T12:33:17.686Z,10.61
2022-11-05T12:34:17.332Z,10.69
2022-11-05T12:35:17.332Z,10.64
2022-11-05T12:36:17.325Z,10.61
2022-11-05T12:37:17.332Z,10.63
2022-11-05T12:38:17.319Z,10.72
2022-11-05T12:39:17.319Z,10.68
2022-11-05T12:40:17.315Z,10.74
2022-11-05T12:41:17.312Z,10.75
2022-11-05T12:42:17.309Z,10.74
2022-11-05T12:43:17.825Z,10.74
2022-11-05T12:44:17.301Z,10.69
2022-11-05T12:45:17.302Z,10.84
2022-11-05T12:46:17.304Z,10.79
2022-11-05T12:47:17.303Z,10.86
2022-11-05T12:48:17.292Z,10.84
2022-11-05T12:49:17.402Z,10.81
2022-11-05T12:50:17.288Z,10.81
2022-11-05T12:51:17.282Z,10.81
2022-11-05T12:52:17.275Z,10.84
2022-11-05T12:53:17.275Z,10.92
2022-11-05T12:54:17.270Z,10.90
2022-11-05T12:55:17.272Z,10.79
2022-11-05T12:56:17.262Z,10.79
2022-11-05T12:57:17.264Z,10.81
2022-11-05T12:58:17.257Z,10.74
2022-11-05T12:59:17.257Z,10.76
2022-11-05T13:00:17.250Z,10.84
2022-11-05T13:01:17.469Z,10.81
2022-11-05T13:02:17.396Z,10.82
2022-11-05T13:03:17.244Z,10.76
2022-11-05T13:04:17.239Z,10.72
2022-11-05T13:05:17.254Z,10.84
2022-11-05T13:06:17.235Z,10.79
2022-11-05T13:07:17.233Z,10.74
2022-11-05T13:08:17.231Z,10.81
2022-11-05T13:09:17.225Z,10.74
2022-11-05T13:10:17.221Z,10.84
2022-11-05T13:11:17.271Z,10.75
2022-11-05T13:12:17.215Z,10.84
2022-11-05T13:13:17.211Z,10.81